Paynesville, MN

6:13 AM CDT on August 28, 2016 (GMT -0500)
Paynesville

Weather History for KPEX - September, 2012

Change the Weather History Date:

Sunday, September 2, 2012

  Actual Average (KLJF) Record (KLJF)
Temperature  
Mean Temperature 74 °F -  
Max Temperature 87 °F 76 °F 96 °F (1961)
Min Temperature 60 °F 55 °F 40 °F (1968)
Cooling Degree Days 8    
Growing Degree Days 24 (Base 50)    
Moisture  
Dew Point 57 °F    
Average Humidity 57    
Maximum Humidity 78    
Minimum Humidity 41    
Precipitation  
Precipitation 0.00 in - - ()
Sea Level Pressure  
Sea Level Pressure 29.91 in    
Wind  
Wind Speed 7 mph (SSE)    
Max Wind Speed 16 mph    
Max Gust Speed 23 mph    
Visibility 10 miles    
Events      
Averages and records for this station are not official NWS values.
T = Trace of Precipitation, MM = Missing Value Source: NWS Daily Summary

Daily Weather History Graph

Daily Weather History Graph

Search for Another Location

Airport or City:

Trip Planner

Search our weather history database for the weather conditions in past years. The results will help you decide how hot, cold, wet, or windy it might be!

Date:

Astronomy

Sep. 02, 2012 Rise Set
Actual Time 6:42 AM CDT 7:53 PM CDT
Civil Twilight 6:11 AM CDT 8:23 PM CDT
Nautical Twilight 5:35 AM CDT 9:00 PM CDT
Astronomical Twilight 4:56 AM CDT 9:38 PM CDT
Moon 8:30 PM CDT (9/2) 9:01 AM CDT (9/2)
Length of Visible Light 14h 12m
Length of Day
13h 11m
Waning Gibbous, 95% of the Moon is Illuminated
Sep 2
Waning Gibbous
Sep 8
Last Quarter
Sep 15
New
Sep 22
First Quarter
Sep 29
Full

Hourly Weather History & Observations

Time (CDT) Temp. Heat Index Dew Point Humidity Pressure Visibility Wind Dir Wind Speed Gust Speed Precip Events Conditions
12:13 AM 66.0 °F - 53.6 °F 64% 30.02 in 10.0 mi ESE 4.6 mph - N/A   Clear
12:34 AM 65.3 °F - 53.6 °F 66% 30.02 in 10.0 mi ESE 4.6 mph - N/A   Clear
12:53 AM 65.7 °F - 53.2 °F 64% 30.02 in 10.0 mi SE 4.6 mph - N/A   Clear
1:13 AM 65.8 °F - 53.2 °F 64% 30.01 in 10.0 mi SE 5.8 mph - N/A   Clear
1:34 AM 66.2 °F - 53.1 °F 63% 30.01 in 10.0 mi SE 4.6 mph - N/A   Clear
1:53 AM 66.4 °F - 52.7 °F 61% 30.00 in 10.0 mi SE 5.8 mph - N/A   Clear
2:13 AM 66.4 °F - 52.5 °F 61% 30.00 in 10.0 mi SE 5.8 mph - N/A   Clear
2:34 AM 66.2 °F - 52.7 °F 62% 29.99 in 10.0 mi ESE 5.8 mph - N/A   Clear
3:13 AM 65.7 °F - 52.3 °F 62% 29.99 in 10.0 mi SE 4.6 mph - N/A   Clear
3:34 AM 65.1 °F - 52.7 °F 64% 29.99 in 10.0 mi SE 5.8 mph - N/A   Clear
3:53 AM 64.4 °F - 52.9 °F 66% 29.99 in 10.0 mi SE 5.8 mph - N/A   Clear
4:14 AM 64.4 °F - 52.7 °F 66% 29.98 in 10.0 mi SE 9.2 mph - N/A   Clear
4:33 AM 64.0 °F - 52.7 °F 67% 29.97 in 10.0 mi SE 8.1 mph - N/A   Clear
4:54 AM 63.7 °F - 52.7 °F 67% 29.97 in 10.0 mi SE 8.1 mph - N/A   Clear
5:13 AM 63.0 °F - 53.2 °F 71% 29.97 in 10.0 mi SE 8.1 mph - N/A   Clear
5:33 AM 62.1 °F - 52.2 °F 70% 29.99 in 10.0 mi SSE 5.8 mph - N/A   Clear
5:54 AM 61.3 °F - 52.5 °F 73% 29.99 in 10.0 mi SE 4.6 mph - N/A   Clear
6:13 AM 60.3 °F - 52.7 °F 76% 29.99 in 10.0 mi Calm Calm - N/A   Clear
6:33 AM 60.4 °F - 53.6 °F 78% 29.99 in 10.0 mi ESE 4.6 mph - N/A   Clear
6:54 AM 60.8 °F - 53.6 °F 77% 29.99 in 10.0 mi SE 5.8 mph - N/A   Clear
7:13 AM 60.8 °F - 54.0 °F 78% 29.99 in 10.0 mi SE 6.9 mph - N/A   Clear
7:33 AM 61.9 °F - 53.6 °F 74% 29.99 in 10.0 mi SSE 6.9 mph - N/A   Clear
7:54 AM 62.2 °F - 53.1 °F 72% 29.97 in 10.0 mi SE 9.2 mph - N/A   Clear
8:13 AM 63.3 °F - 54.1 °F 72% 29.97 in 10.0 mi SE 8.1 mph - N/A   Clear
8:33 AM 63.7 °F - 54.0 °F 71% 29.97 in 10.0 mi SE 8.1 mph - N/A   Clear
8:54 AM 64.9 °F - 54.1 °F 68% 29.96 in 10.0 mi SE 9.2 mph - N/A   Clear
9:13 AM 66.4 °F - 54.5 °F 66% 29.96 in 10.0 mi SSE 9.2 mph - N/A   Clear
9:34 AM 68.5 °F - 54.5 °F 61% 29.95 in 10.0 mi SSE 10.4 mph - N/A   Clear
9:53 AM 71.1 °F - 53.6 °F 54% 29.95 in 10.0 mi SSE 10.4 mph 16.1 mph N/A   Clear
10:13 AM 72.0 °F - 52.5 °F 50% 29.94 in 10.0 mi SE 11.5 mph - N/A   Clear
10:34 AM 72.7 °F - 53.2 °F 50% 29.94 in 10.0 mi SSE 10.4 mph - N/A   Clear
10:53 AM 74.3 °F - 54.3 °F 50% 29.94 in 10.0 mi SSE 11.5 mph 16.1 mph N/A   Clear
11:13 AM 75.9 °F - 55.4 °F 49% 29.94 in 10.0 mi South 11.5 mph 18.4 mph N/A   Clear
11:34 AM 77.5 °F - 56.8 °F 49% 29.93 in 10.0 mi SSE 10.4 mph 18.4 mph N/A   Clear
11:53 AM 78.8 °F - 57.7 °F 48% 29.92 in 10.0 mi SE 12.7 mph - N/A   Clear
12:13 PM 79.9 °F - 58.8 °F 48% 29.91 in 10.0 mi SSE 12.7 mph 17.3 mph N/A   Clear
12:34 PM 81.5 °F 81.7 °F 59.0 °F 46% 29.90 in 10.0 mi SSE 11.5 mph - N/A   Clear
12:53 PM 82.2 °F 82.4 °F 59.4 °F 46% 29.89 in 10.0 mi SSE 12.7 mph 20.7 mph N/A   Clear
1:14 PM 82.4 °F 82.6 °F 59.5 °F 46% 29.89 in 10.0 mi SE 13.8 mph 20.7 mph N/A   Clear
1:33 PM 82.4 °F 82.7 °F 60.1 °F 47% 29.89 in 10.0 mi SSE 13.8 mph 21.9 mph N/A   Clear
1:53 PM 83.7 °F 83.8 °F 60.1 °F 45% 29.87 in 10.0 mi SSE 15.0 mph - N/A   Clear
2:14 PM 85.6 °F 85.4 °F 60.3 °F 42% 29.87 in 10.0 mi SSE 15.0 mph 20.7 mph N/A   Clear
2:33 PM 85.8 °F 85.4 °F 59.9 °F 41% 29.86 in 10.0 mi South 11.5 mph 23.0 mph N/A   Clear
2:53 PM 86.5 °F 86.3 °F 60.1 °F 41% 29.86 in 10.0 mi SSE 16.1 mph 23.0 mph N/A   Clear
3:14 PM 86.9 °F 86.7 °F 60.4 °F 41% 29.84 in 10.0 mi SSE 12.7 mph 20.7 mph N/A   Clear
3:33 PM 86.2 °F 86.1 °F 60.4 °F 42% 29.84 in 10.0 mi SSE 12.7 mph 20.7 mph N/A   Clear
3:54 PM 84.9 °F 85.0 °F 60.4 °F 44% 29.84 in 10.0 mi SSE 15.0 mph 21.9 mph N/A   Clear
4:13 PM 85.1 °F 85.2 °F 61.2 °F 44% 29.83 in 10.0 mi SSE 10.4 mph - N/A   Clear
4:33 PM 84.6 °F 84.8 °F 61.2 °F 45% 29.83 in 10.0 mi SSE 12.7 mph 17.3 mph N/A   Clear
4:54 PM 86.2 °F 86.1 °F 60.8 °F 42% 29.83 in 10.0 mi SSE 11.5 mph 19.6 mph N/A   Clear
5:13 PM 87.1 °F 87.0 °F 61.0 °F 41% 29.83 in 10.0 mi SSE 10.4 mph 18.4 mph N/A   Clear
5:34 PM 85.8 °F 85.9 °F 61.2 °F 43% 29.84 in 10.0 mi South 10.4 mph 17.3 mph N/A   Clear
5:53 PM 85.5 °F 85.9 °F 61.7 °F 45% 29.84 in 10.0 mi SSE 8.1 mph - N/A   Clear
6:13 PM 85.3 °F 85.9 °F 62.1 °F 46% 29.84 in 10.0 mi SSE 8.1 mph - N/A   Clear
6:34 PM 85.8 °F 85.9 °F 60.8 °F 43% 29.84 in 10.0 mi SSE 8.1 mph - N/A   Clear
6:53 PM 84.2 °F 84.8 °F 61.7 °F 47% 29.83 in 10.0 mi SSE 4.6 mph - N/A   Clear
7:13 PM 83.5 °F 84.1 °F 61.9 °F 48% 29.82 in 10.0 mi SSE 8.1 mph - N/A   Clear
7:33 PM 83.3 °F 83.9 °F 61.7 °F 48% 29.83 in 10.0 mi SSE 8.1 mph - N/A   Clear
7:53 PM 82.2 °F 82.9 °F 61.3 °F 49% 29.82 in 10.0 mi SSE 5.8 mph - N/A   Clear
8:13 PM 81.1 °F 82.3 °F 62.4 °F 53% 29.82 in 10.0 mi SE 4.6 mph - N/A   Clear
8:34 PM 80.1 °F 81.5 °F 63.1 °F 56% 29.82 in 10.0 mi SE 5.8 mph - N/A   Clear
8:53 PM 79.7 °F - 63.7 °F 58% 29.83 in 10.0 mi SE 5.8 mph - N/A   Clear
9:14 PM 79.0 °F - 63.1 °F 58% 29.84 in 10.0 mi SSE 4.6 mph - N/A   Clear
9:33 PM 77.9 °F - 63.0 °F 60% 29.84 in 10.0 mi SSE 4.6 mph - N/A   Clear
9:54 PM 77.4 °F - 62.8 °F 61% 29.84 in 10.0 mi SSE 4.6 mph - N/A   Clear
10:13 PM 77.0 °F - 62.6 °F 61% 29.85 in 10.0 mi South 3.5 mph - N/A   Scattered Clouds
10:33 PM 77.0 °F - 62.2 °F 60% 29.85 in 10.0 mi South 3.5 mph - N/A   Scattered Clouds
11:13 PM 75.2 °F - 61.7 °F 63% 29.86 in 10.0 mi Calm Calm - N/A   Scattered Clouds
11:53 PM 71.8 °F - 61.9 °F 71% 29.85 in 10.0 mi Calm Calm - N/A   Scattered Clouds